Time;durP1;ratioP1;P1;durP2;ratioP2;P2;SDS_P1;SDS_P2;PMS_P1;PMS_P2;Temp;Humidity;BMP_temperature;BMP_pressure;BME280_temperature;BME280_humidity;BME280_pressure;Samples;Min_cycle;Max_cycle;Signal;HPM_P1;HPM_P2
2022/11/24 00:01:22;;;;;;;29.33;19.67;;;7.30;99.90;;;;;;5054160;28;20111;-66
2022/11/24 00:04:00;;;;;;;33.70;20.00;;;6.50;99.90;;;;;;5040001;28;20423;-66
2022/11/24 00:06:27;;;;;;;28.90;17.83;;;6.80;99.90;;;;;;5029384;28;20087;-65
2022/11/24 00:08:53;;;;;;;28.23;21.00;;;7.10;99.90;;;;;;5039635;28;20070;-65
2022/11/24 00:11:21;;;;;;;31.23;19.52;;;7.30;99.90;;;;;;5041214;28;20048;-65
2022/11/24 00:13:47;;;;;;;27.73;19.65;;;6.80;99.90;;;;;;5038538;28;20055;-65
2022/11/24 00:16:22;;;;;;;25.13;17.50;;;6.70;99.90;;;;;;5033061;28;20084;-65
2022/11/24 00:18:51;;;;;;;33.85;19.25;;;6.50;99.90;;;;;;5036363;28;20055;-64
2022/11/24 00:21:18;;;;;;;28.30;18.23;;;7.20;99.90;;;;;;5036465;28;20387;-65
2022/11/24 00:23:44;;;;;;;33.03;18.17;;;6.50;99.90;;;;;;5036226;28;20122;-66
2022/11/24 00:26:15;;;;;;;25.65;18.58;;;6.70;99.90;;;;;;5035543;28;20120;-65
2022/11/24 00:28:42;;;;;;;30.30;17.80;;;6.80;99.90;;;;;;5036395;28;20334;-65
2022/11/24 00:31:18;;;;;;;31.25;18.58;;;7.30;99.90;;;;;;5034531;28;20051;-64
2022/11/24 00:33:47;;;;;;;31.88;19.02;;;6.90;99.90;;;;;;5017913;28;20052;-66
2022/11/24 00:36:13;;;;;;;33.80;19.73;;;7.20;99.90;;;;;;5037097;28;20049;-65
2022/11/24 00:38:39;;;;;;;32.60;18.30;;;6.30;99.90;;;;;;5035113;28;20048;-66
2022/11/24 00:41:05;;;;;;;26.55;17.27;;;7.00;99.90;;;;;;5021869;28;20052;-65
2022/11/24 00:43:32;;;;;;;30.77;19.63;;;6.70;99.90;;;;;;5041193;28;20037;-65
2022/11/24 00:45:57;;;;;;;25.48;16.02;;;7.10;99.90;;;;;;5037657;28;20072;-65
2022/11/24 00:48:23;;;;;;;32.78;19.63;;;7.00;99.90;;;;;;5016109;28;20258;-67
2022/11/24 00:51:00;;;;;;;31.77;18.02;;;6.70;99.90;;;;;;5010096;28;20078;-66
2022/11/24 00:53:27;;;;;;;35.53;18.50;;;6.90;99.90;;;;;;5036335;28;20053;-66
2022/11/24 00:55:53;;;;;;;35.67;19.17;;;7.10;99.90;;;;;;5034221;28;20045;-66
2022/11/24 00:58:19;;;;;;;34.88;18.95;;;7.00;99.90;;;;;;5037258;28;20040;-67
2022/11/24 01:00:45;;;;;;;32.58;18.80;;;6.90;99.90;;;;;;5042478;28;20572;-65
2022/11/24 01:03:12;;;;;;;29.60;17.58;;;6.20;99.90;;;;;;5034277;28;20113;-66
2022/11/24 01:05:38;;;;;;;30.00;17.67;;;6.30;99.90;;;;;;5038332;28;20040;-66
2022/11/24 01:08:04;;;;;;;31.38;16.92;;;6.30;99.90;;;;;;5057675;28;20044;-66
2022/11/24 01:10:30;;;;;;;38.97;18.23;;;7.20;99.90;;;;;;5021460;28;20095;-66
2022/11/24 01:12:56;;;;;;;38.70;19.85;;;7.00;99.90;;;;;;5038546;28;20036;-64
2022/11/24 01:15:21;;;;;;;36.00;17.65;;;6.70;99.90;;;;;;5023030;28;20114;-64
2022/11/24 01:17:47;;;;;;;33.03;17.42;;;6.60;99.90;;;;;;5020683;28;20064;-65
2022/11/24 01:20:13;;;;;;;42.42;18.35;;;7.00;99.90;;;;;;5036462;28;20044;-66
2022/11/24 01:22:40;;;;;;;36.47;16.80;;;7.20;99.90;;;;;;5038280;28;20063;-65
2022/11/24 01:25:09;;;;;;;31.77;15.20;;;6.20;99.90;;;;;;5022138;28;20891;-65
2022/11/24 01:27:35;;;;;;;42.05;17.27;;;6.80;99.90;;;;;;5037750;28;20118;-64
2022/11/24 01:30:01;;;;;;;37.55;15.68;;;7.20;99.90;;;;;;5038661;28;20705;-65
2022/11/24 01:32:26;;;;;;;37.85;15.82;;;6.90;99.90;;;;;;5037913;28;20076;-65
2022/11/24 01:34:52;;;;;;;33.58;16.05;;;6.50;99.90;;;;;;5037946;28;20040;-64
2022/11/24 01:37:18;;;;;;;41.90;16.08;;;7.00;99.90;;;;;;5036671;28;20047;-64
2022/11/24 01:39:44;;;;;;;38.03;14.85;;;6.80;99.90;;;;;;5038691;28;20781;-66
2022/11/24 01:42:10;;;;;;;36.60;14.98;;;7.10;99.90;;;;;;5007657;28;20811;-64
2022/11/24 01:44:35;;;;;;;31.60;14.68;;;6.70;99.90;;;;;;5038129;28;20040;-65
2022/11/24 01:47:12;;;;;;;36.75;13.63;;;7.20;99.90;;;;;;5038146;28;20060;-66
2022/11/24 01:49:49;;;;;;;37.38;13.15;;;6.20;99.90;;;;;;5036725;28;20055;-65
2022/11/24 01:52:29;;;;;;;35.38;14.38;;;6.60;99.90;;;;;;5026576;28;20437;-64
2022/11/24 01:54:59;;;;;;;37.10;12.55;;;7.00;99.90;;;;;;5021246;28;20048;-65
2022/11/24 02:00:36;;;;;;;36.25;12.82;;;7.00;99.90;;;;;;5029984;28;20082;-66
2022/11/24 02:03:02;;;;;;;39.00;12.38;;;6.70;99.90;;;;;;5038517;28;20135;-65
2022/11/24 02:05:43;;;;;;;34.55;11.48;;;6.60;99.90;;;;;;5035731;28;20110;-65
2022/11/24 02:08:20;;;;;;;35.92;11.30;;;6.30;99.90;;;;;;5034423;28;20101;-65
2022/11/24 02:10:47;;;;;;;33.22;10.48;;;6.10;99.90;;;;;;5037231;28;20040;-65
2022/11/24 02:13:14;;;;;;;33.88;10.95;;;6.10;99.90;;;;;;5036362;28;20888;-63
2022/11/24 02:15:40;;;;;;;39.22;12.15;;;7.00;99.90;;;;;;5038147;28;20410;-65
2022/11/24 02:18:06;;;;;;;37.05;10.85;;;6.90;99.90;;;;;;5005259;28;20398;-66
2022/11/24 02:20:32;;;;;;;33.90;10.50;;;5.90;99.90;;;;;;5002699;28;20044;-65
2022/11/24 02:23:23;;;;;;;38.38;10.85;;;6.90;99.90;;;;;;5052953;28;20044;-66
2022/11/24 02:26:07;;;;;;;41.08;9.88;;;6.10;99.90;;;;;;5055427;28;20121;-65
2022/11/24 02:28:33;;;;;;;35.95;9.88;;;6.80;99.90;;;;;;5037838;28;20046;-64
2022/11/24 02:30:59;;;;;;;33.50;9.55;;;7.10;99.90;;;;;;5059615;28;20045;-65
2022/11/24 02:33:25;;;;;;;36.50;9.98;;;6.70;99.90;;;;;;5040916;28;20490;-64
2022/11/24 02:35:52;;;;;;;37.05;9.23;;;6.90;99.90;;;;;;5040439;28;20561;-64
2022/11/24 02:38:18;;;;;;;31.92;8.43;;;6.80;99.90;;;;;;5007945;28;20044;-64
2022/11/24 02:40:47;;;;;;;37.47;9.13;;;6.40;99.90;;;;;;5039586;28;20047;-64
2022/11/24 02:43:16;;;;;;;29.90;7.97;;;6.40;99.90;;;;;;5054912;28;20044;-66
2022/11/24 02:45:42;;;;;;;27.27;7.97;;;6.80;99.90;;;;;;5055630;28;20028;-66
2022/11/24 02:48:12;;;;;;;32.03;8.80;;;7.10;99.90;;;;;;5038442;28;20063;-66
2022/11/24 02:50:37;;;;;;;25.35;6.80;;;6.60;99.90;;;;;;5018905;28;20075;-66
2022/11/24 02:53:03;;;;;;;31.42;7.95;;;7.20;99.90;;;;;;5037326;28;20131;-66
2022/11/24 02:55:28;;;;;;;28.38;7.60;;;6.70;99.90;;;;;;5034798;28;20041;-65
2022/11/24 02:58:00;;;;;;;36.28;7.57;;;7.30;99.90;;;;;;5038295;28;20405;-66
2022/11/24 03:00:26;;;;;;;32.35;8.25;;;7.30;99.90;;;;;;5055585;28;20040;-67
2022/11/24 03:02:51;;;;;;;33.22;8.20;;;6.80;99.90;;;;;;5058662;28;20279;-66
2022/11/24 03:05:17;;;;;;;26.65;6.60;;;6.60;99.90;;;;;;5035476;28;20461;-64
2022/11/24 03:07:44;;;;;;;35.28;8.32;;;7.40;99.90;;;;;;5053480;28;20105;-65
2022/11/24 03:10:10;;;;;;;33.97;8.35;;;6.90;99.90;;;;;;5035207;28;20180;-66
2022/11/24 03:12:35;;;;;;;32.85;7.32;;;7.20;99.90;;;;;;5035513;28;20441;-66
2022/11/24 03:15:02;;;;;;;36.00;7.50;;;7.30;99.90;;;;;;5035306;28;20446;-65
2022/11/24 03:17:28;;;;;;;30.58;7.60;;;6.60;99.90;;;;;;5054209;28;20745;-65
2022/11/24 03:19:53;;;;;;;30.70;6.93;;;7.00;99.90;;;;;;5039512;28;20044;-66
2022/11/24 03:22:19;;;;;;;28.90;6.63;;;6.70;99.90;;;;;;5059166;28;20527;-64
2022/11/24 03:24:44;;;;;;;28.10;6.85;;;6.60;99.90;;;;;;5057909;28;20783;-66
2022/11/24 03:27:10;;;;;;;32.38;6.95;;;6.70;99.90;;;;;;5022345;28;20036;-64
2022/11/24 03:29:36;;;;;;;30.95;6.38;;;6.30;99.90;;;;;;5058057;28;20045;-65
2022/11/24 03:32:01;;;;;;;30.50;6.82;;;7.20;99.90;;;;;;5040433;28;20036;-67
2022/11/24 03:34:27;;;;;;;24.67;5.53;;;6.30;99.90;;;;;;5040993;28;20128;-63
2022/11/24 03:36:53;;;;;;;32.95;6.70;;;6.80;99.90;;;;;;5039645;28;20462;-64
2022/11/24 03:39:18;;;;;;;32.50;6.30;;;6.50;99.90;;;;;;5058767;28;20460;-65
2022/11/24 03:41:44;;;;;;;31.08;6.60;;;6.50;99.90;;;;;;5023180;28;20056;-65
2022/11/24 03:44:10;;;;;;;29.50;6.20;;;7.30;99.90;;;;;;5056771;28;20118;-67
2022/11/24 03:46:35;;;;;;;30.10;6.88;;;7.40;99.90;;;;;;5023787;28;20082;-64
2022/11/24 03:49:01;;;;;;;32.28;6.68;;;7.10;99.90;;;;;;5025187;28;20551;-64
2022/11/24 03:51:27;;;;;;;23.73;5.38;;;6.90;99.90;;;;;;5023478;28;20483;-64
2022/11/24 03:53:52;;;;;;;26.35;5.57;;;7.10;99.90;;;;;;5058040;28;20545;-66
2022/11/24 03:56:18;;;;;;;29.35;5.35;;;6.80;99.90;;;;;;5023352;28;20095;-65
2022/11/24 03:58:44;;;;;;;37.50;6.78;;;7.20;99.90;;;;;;5021951;28;20041;-63
2022/11/24 04:01:09;;;;;;;33.67;5.72;;;6.60;99.90;;;;;;5057195;28;20040;-64
2022/11/24 04:03:35;;;;;;;26.25;5.45;;;6.90;99.90;;;;;;5040169;28;20060;-65
2022/11/24 04:06:01;;;;;;;31.67;5.60;;;7.40;99.90;;;;;;5020819;28;20057;-66
2022/11/24 04:08:27;;;;;;;28.40;4.95;;;6.70;99.90;;;;;;5019331;28;20040;-66
2022/11/24 04:10:53;;;;;;;32.92;5.82;;;6.70;99.90;;;;;;5036704;28;20597;-66
2022/11/24 04:13:22;;;;;;;34.60;5.15;;;7.50;99.90;;;;;;5036876;28;20051;-66
2022/11/24 04:15:48;;;;;;;26.67;5.38;;;6.70;99.90;;;;;;5016192;28;20054;-66
2022/11/24 04:18:14;;;;;;;32.50;5.93;;;6.60;99.90;;;;;;5020738;28;20122;-66
2022/11/24 04:20:40;;;;;;;25.42;4.88;;;7.10;99.90;;;;;;5019796;28;20606;-67
2022/11/24 04:23:06;;;;;;;31.52;5.72;;;6.70;99.90;;;;;;5019395;28;20494;-67
2022/11/24 04:25:32;;;;;;;29.20;5.55;;;6.80;99.90;;;;;;5054438;28;20032;-66
2022/11/24 04:27:58;;;;;;;32.47;5.22;;;7.20;99.90;;;;;;5037339;28;20044;-66
2022/11/24 04:30:27;;;;;;;27.13;5.43;;;7.50;99.90;;;;;;5033079;28;20614;-67
2022/11/24 04:32:53;;;;;;;33.70;6.43;;;7.50;99.90;;;;;;5021647;28;20131;-66
2022/11/24 04:35:20;;;;;;;29.83;5.60;;;7.40;99.90;;;;;;5039855;28;20049;-66
2022/11/24 04:37:46;;;;;;;29.15;4.93;;;7.30;99.90;;;;;;5057764;28;20040;-66
2022/11/24 04:40:13;;;;;;;30.88;6.55;;;6.90;99.90;;;;;;5056711;28;20033;-66
2022/11/24 04:42:39;;;;;;;27.08;4.97;;;7.30;99.90;;;;;;5038254;28;20537;-66
2022/11/24 04:45:05;;;;;;;34.22;5.70;;;6.60;99.90;;;;;;5040308;28;20044;-66
2022/11/24 04:47:31;;;;;;;29.70;5.20;;;6.70;99.90;;;;;;5057672;28;20120;-65
2022/11/24 04:49:57;;;;;;;24.20;4.70;;;6.80;99.90;;;;;;5011414;28;20710;-64
2022/11/24 04:52:24;;;;;;;23.90;4.22;;;6.60;99.90;;;;;;5026522;28;20461;-64
2022/11/24 04:54:50;;;;;;;33.80;5.60;;;6.70;99.90;;;;;;5042347;28;20048;-64
2022/11/24 04:57:16;;;;;;;27.23;4.85;;;6.70;99.90;;;;;;5061234;28;20200;-64
2022/11/24 04:59:42;;;;;;;30.45;4.95;;;7.50;99.90;;;;;;5024971;28;20079;-64
2022/11/24 05:02:08;;;;;;;32.47;5.50;;;7.00;99.90;;;;;;5055936;28;20131;-66
2022/11/24 05:04:34;;;;;;;30.80;5.60;;;6.80;99.90;;;;;;5038158;28;20501;-66
2022/11/24 05:07:00;;;;;;;31.80;4.03;;;7.10;99.90;;;;;;5022490;28;20343;-65
2022/11/24 05:09:26;;;;;;;29.23;5.25;;;6.40;99.90;;;;;;5037442;28;20299;-65
2022/11/24 05:11:51;;;;;;;30.10;4.97;;;6.30;99.90;;;;;;5055961;28;20041;-65
2022/11/24 05:14:17;;;;;;;34.55;5.30;;;6.40;99.90;;;;;;5056569;28;20101;-65
2022/11/24 05:16:43;;;;;;;30.02;5.00;;;6.20;99.90;;;;;;5037851;28;20052;-65
2022/11/24 05:19:08;;;;;;;31.42;5.07;;;6.10;99.90;;;;;;5019625;28;20052;-66
2022/11/24 05:21:34;;;;;;;24.33;4.15;;;6.80;99.90;;;;;;5021807;28;20485;-65
2022/11/24 05:24:00;;;;;;;23.15;4.25;;;6.00;99.90;;;;;;5037989;28;20107;-66
2022/11/24 05:26:26;;;;;;;25.92;4.70;;;6.60;99.90;;;;;;5036934;28;20435;-66
2022/11/24 05:28:52;;;;;;;27.15;4.70;;;6.80;99.90;;;;;;5038598;28;20045;-65
2022/11/24 05:31:18;;;;;;;30.30;5.10;;;6.20;99.90;;;;;;5056970;28;20633;-65
2022/11/24 05:33:44;;;;;;;25.98;4.38;;;5.90;99.90;;;;;;5017404;28;20287;-65
2022/11/24 05:36:51;;;;;;;26.90;4.13;;;6.00;99.90;;;;;;5038798;28;21681;-66
2022/11/24 05:38:59;;;;;;;29.67;4.57;;;5.80;99.90;;;;;;5037889;28;20044;-66
2022/11/24 05:41:25;;;;;;;23.63;4.10;;;6.30;99.90;;;;;;5054079;28;20045;-66
2022/11/24 05:43:51;;;;;;;28.25;4.40;;;6.30;99.90;;;;;;5020385;28;20207;-64
2022/11/24 05:46:16;;;;;;;28.30;4.60;;;6.70;99.90;;;;;;5021586;28;20097;-65
2022/11/24 05:48:42;;;;;;;26.95;4.60;;;6.30;99.90;;;;;;5009321;28;20441;-66
2022/11/24 05:51:08;;;;;;;27.08;4.40;;;5.50;99.90;;;;;;5036849;28;20044;-66
2022/11/24 05:53:35;;;;;;;26.15;4.13;;;5.90;99.90;;;;;;5038568;28;20047;-65
2022/11/24 05:56:04;;;;;;;26.98;4.68;;;6.40;99.90;;;;;;5055042;28;20047;-65
2022/11/24 05:58:29;;;;;;;31.42;5.05;;;5.60;99.90;;;;;;5038321;28;20383;-65
2022/11/24 06:00:55;;;;;;;33.28;5.00;;;6.20;99.90;;;;;;5037675;28;20296;-65
2022/11/24 06:03:21;;;;;;;29.27;4.43;;;6.20;99.90;;;;;;5037247;28;20050;-65
2022/11/24 06:05:46;;;;;;;31.40;4.10;;;5.40;99.90;;;;;;5033169;28;20052;-65
2022/11/24 06:08:13;;;;;;;29.80;4.38;;;5.40;99.90;;;;;;5055938;28;20350;-64
2022/11/24 06:10:38;;;;;;;28.30;4.25;;;5.20;99.90;;;;;;5055097;28;20037;-65
2022/11/24 06:13:07;;;;;;;27.83;4.20;;;5.80;99.90;;;;;;5035827;28;20394;-64
2022/11/24 06:15:34;;;;;;;23.40;4.53;;;6.10;99.90;;;;;;5040380;28;20411;-64
2022/11/24 06:17:59;;;;;;;28.27;5.03;;;5.20;99.90;;;;;;5059857;28;20044;-63
2022/11/24 06:20:25;;;;;;;27.55;4.20;;;6.20;99.90;;;;;;5057373;28;20036;-63
2022/11/24 06:22:51;;;;;;;23.20;4.32;;;5.30;99.90;;;;;;5017269;28;20048;-64
2022/11/24 06:25:17;;;;;;;28.40;4.18;;;6.00;99.90;;;;;;5058534;28;20344;-65
2022/11/24 06:27:45;;;;;;;25.77;4.30;;;5.50;99.90;;;;;;5059342;28;20192;-65
2022/11/24 06:30:12;;;;;;;30.17;4.43;;;6.00;99.90;;;;;;5040586;28;20040;-65
2022/11/24 06:32:38;;;;;;;30.65;4.55;;;4.90;99.90;;;;;;5023931;28;20517;-65
2022/11/24 06:35:05;;;;;;;25.40;3.95;;;5.50;99.90;;;;;;5040160;28;20067;-65
2022/11/24 06:37:31;;;;;;;27.98;4.55;;;4.90;99.90;;;;;;5022810;28;20044;-65
2022/11/24 06:39:56;;;;;;;29.55;4.53;;;6.00;99.90;;;;;;5041058;28;20036;-64
2022/11/24 06:42:22;;;;;;;28.63;4.30;;;6.00;99.90;;;;;;5057090;28;20167;-64
2022/11/24 06:44:48;;;;;;;22.20;4.50;;;4.80;99.90;;;;;;5022999;28;20037;-65
2022/11/24 06:47:14;;;;;;;22.55;3.70;;;5.40;99.90;;;;;;5058712;28;20032;-65
2022/11/24 06:49:40;;;;;;;24.50;4.07;;;5.10;99.90;;;;;;5038378;28;20116;-66
2022/11/24 06:52:06;;;;;;;33.28;5.15;;;5.80;99.90;;;;;;5034737;28;21510;-66
2022/11/24 06:54:32;;;;;;;28.52;4.65;;;5.10;99.90;;;;;;5054176;28;20896;-67
2022/11/24 06:56:58;;;;;;;37.30;4.85;;;6.10;99.90;;;;;;5055490;28;20500;-66
2022/11/24 06:59:25;;;;;;;27.65;5.25;;;4.80;99.90;;;;;;5035100;28;20119;-67
2022/11/24 07:01:51;;;;;;;29.65;4.90;;;5.20;99.90;;;;;;5037477;28;20485;-66
2022/11/24 07:04:18;;;;;;;31.38;5.20;;;6.00;99.90;;;;;;5035036;28;20048;-67
2022/11/24 07:06:44;;;;;;;26.35;4.50;;;5.10;99.90;;;;;;5052679;28;20053;-66
2022/11/24 07:09:12;;;;;;;32.75;5.10;;;4.80;99.90;;;;;;5034810;28;20063;-66
2022/11/24 07:11:38;;;;;;;26.92;4.45;;;5.20;99.90;;;;;;5021092;28;20137;-65
2022/11/24 07:14:05;;;;;;;25.83;4.15;;;5.50;99.90;;;;;;5054134;28;20130;-67
2022/11/24 07:16:31;;;;;;;23.50;3.42;;;5.60;99.90;;;;;;5036311;28;20048;-66
2022/11/24 07:18:57;;;;;;;30.00;3.90;;;5.50;99.90;;;;;;5037193;28;20051;-65
2022/11/24 07:21:24;;;;;;;26.27;4.30;;;6.00;99.90;;;;;;5035247;28;20086;-67
2022/11/24 07:23:55;;;;;;;27.50;4.47;;;5.60;99.90;;;;;;5053759;28;20033;-65
2022/11/24 07:26:21;;;;;;;27.67;3.88;;;5.30;99.90;;;;;;5033850;28;20037;-64
2022/11/24 07:28:47;;;;;;;31.50;4.15;;;5.80;99.90;;;;;;5019068;28;20036;-64
2022/11/24 07:31:16;;;;;;;25.35;4.30;;;6.00;99.90;;;;;;5036988;28;20055;-66
2022/11/24 07:33:41;;;;;;;22.08;3.78;;;5.10;99.90;;;;;;5037989;28;20036;-65
2022/11/24 07:36:08;;;;;;;34.40;4.35;;;5.90;99.90;;;;;;5035471;28;20075;-65
2022/11/24 07:38:34;;;;;;;26.75;3.63;;;5.10;99.90;;;;;;5018410;28;20338;-65
2022/11/24 07:41:01;;;;;;;28.20;3.50;;;6.10;99.90;;;;;;5033218;28;20049;-64
2022/11/24 07:43:29;;;;;;;25.63;3.90;;;6.30;99.90;;;;;;5053838;28;20099;-66
2022/11/24 07:45:55;;;;;;;28.02;3.85;;;5.90;99.90;;;;;;5034231;28;20048;-66
2022/11/24 07:48:20;;;;;;;22.05;3.60;;;6.10;99.90;;;;;;5018145;28;20041;-65
2022/11/24 07:50:46;;;;;;;30.80;4.50;;;5.90;99.90;;;;;;5035631;28;20051;-64
2022/11/24 07:53:12;;;;;;;23.30;3.70;;;5.40;99.90;;;;;;5038140;28;20157;-65
2022/11/24 07:55:37;;;;;;;27.55;4.20;;;6.20;99.90;;;;;;5036929;28;20047;-63
2022/11/24 07:58:03;;;;;;;25.95;4.57;;;5.60;99.90;;;;;;5037460;28;20209;-64
2022/11/24 08:00:28;;;;;;;23.52;3.60;;;5.90;99.90;;;;;;5013105;28;20055;-63
2022/11/24 08:02:54;;;;;;;31.15;4.70;;;6.30;99.90;;;;;;5037297;28;20047;-64
2022/11/24 08:05:20;;;;;;;30.10;4.00;;;6.10;99.90;;;;;;5056127;28;20438;-64
2022/11/24 08:07:45;;;;;;;26.42;4.15;;;6.20;99.90;;;;;;5039899;28;20052;-64
2022/11/24 08:10:11;;;;;;;29.00;4.32;;;5.70;99.90;;;;;;5059224;28;20487;-65
2022/11/24 08:12:37;;;;;;;32.88;5.75;;;6.60;99.90;;;;;;5040877;28;20048;-64
2022/11/24 08:15:03;;;;;;;27.08;4.40;;;5.80;99.90;;;;;;5023796;28;20052;-63
2022/11/24 08:17:29;;;;;;;27.98;4.30;;;6.70;99.90;;;;;;5041702;28;20247;-63
2022/11/24 08:19:54;;;;;;;27.20;4.43;;;6.00;99.90;;;;;;5042372;28;20052;-66
2022/11/24 08:22:20;;;;;;;24.20;3.92;;;6.50;99.90;;;;;;5043029;28;20047;-65
2022/11/24 08:24:47;;;;;;;22.67;4.22;;;6.80;99.90;;;;;;5040712;28;20041;-65
2022/11/24 08:27:16;;;;;;;23.05;4.50;;;6.20;99.90;;;;;;5057300;28;20032;-65
2022/11/24 08:29:42;;;;;;;23.98;4.68;;;6.50;99.90;;;;;;5038917;28;20051;-64
2022/11/24 08:32:10;;;;;;;23.20;4.38;;;6.40;99.90;;;;;;5037972;28;20036;-64
2022/11/24 08:34:36;;;;;;;19.90;3.47;;;6.40;99.90;;;;;;5039602;28;20058;-65
2022/11/24 08:37:04;;;;;;;25.98;4.32;;;7.00;99.90;;;;;;5039350;28;20083;-65
2022/11/24 08:39:30;;;;;;;23.02;4.22;;;7.10;99.90;;;;;;5042227;28;20778;-63
2022/11/24 08:41:56;;;;;;;22.42;4.43;;;6.90;99.90;;;;;;5043362;28;20094;-64
2022/11/24 08:44:22;;;;;;;21.08;4.65;;;7.00;99.90;;;;;;5060340;28;20032;-64
2022/11/24 08:46:48;;;;;;;25.15;4.47;;;7.50;99.90;;;;;;5043155;28;20033;-64
2022/11/24 08:49:15;;;;;;;24.85;4.28;;;7.60;99.90;;;;;;5060754;28;20640;-64
2022/11/24 08:51:41;;;;;;;22.08;4.38;;;7.70;99.90;;;;;;5042859;28;21109;-65
2022/11/24 08:54:09;;;;;;;23.27;4.50;;;7.40;99.90;;;;;;5060281;28;20151;-64
2022/11/24 08:56:34;;;;;;;20.00;3.58;;;7.60;99.90;;;;;;5060643;28;20043;-63
2022/11/24 08:59:01;;;;;;;24.30;4.95;;;7.70;99.90;;;;;;5042979;28;20033;-64
2022/11/24 09:01:27;;;;;;;24.17;4.78;;;7.60;99.90;;;;;;5060975;28;20036;-64
2022/11/24 09:03:53;;;;;;;20.40;4.22;;;7.70;99.90;;;;;;5042556;28;21092;-64
2022/11/24 09:06:22;;;;;;;22.60;5.60;;;7.80;99.90;;;;;;5060962;28;20048;-64
2022/11/24 09:08:48;;;;;;;23.10;4.70;;;8.10;99.90;;;;;;5010469;28;20116;-66
2022/11/24 09:11:15;;;;;;;20.65;5.03;;;7.90;99.90;;;;;;5058815;28;20041;-66
2022/11/24 09:13:41;;;;;;;18.55;4.15;;;8.30;99.90;;;;;;5026749;28;20055;-66
2022/11/24 09:16:10;;;;;;;21.70;5.00;;;8.10;99.90;;;;;;5036215;28;20055;-65
2022/11/24 09:18:36;;;;;;;22.48;5.43;;;8.20;99.90;;;;;;5036920;28;20051;-66
2022/11/24 09:21:18;;;;;;;20.85;4.97;;;8.20;99.90;;;;;;5039437;28;20498;-66
2022/11/24 09:23:47;;;;;;;23.50;6.22;;;8.30;99.90;;;;;;5038015;28;20146;-66
2022/11/24 09:26:19;;;;;;;23.60;5.20;;;8.30;99.90;;;;;;5036933;28;20127;-65
2022/11/24 09:28:45;;;;;;;18.67;5.10;;;8.20;99.90;;;;;;5039369;28;20044;-65
2022/11/24 09:31:13;;;;;;;23.73;5.90;;;8.20;99.90;;;;;;5037697;28;20040;-66
2022/11/24 09:33:40;;;;;;;22.02;5.32;;;8.40;99.90;;;;;;5037769;28;20055;-65
2022/11/24 09:36:06;;;;;;;18.52;5.05;;;8.60;99.90;;;;;;5039192;28;20406;-65
2022/11/24 09:38:32;;;;;;;20.52;5.63;;;8.50;99.90;;;;;;5038516;28;20184;-66
2022/11/24 09:41:16;;;;;;;21.27;5.47;;;8.60;99.90;;;;;;5052938;28;20063;-67
2022/11/24 09:44:02;;;;;;;18.67;5.28;;;8.60;99.90;;;;;;5023172;28;20043;-66
2022/11/24 09:46:39;;;;;;;20.15;5.38;;;8.80;99.90;;;;;;5037553;28;20044;-65
2022/11/24 09:49:29;;;;;;;19.48;5.60;;;8.70;99.90;;;;;;5054512;28;20482;-65
2022/11/24 09:51:55;;;;;;;20.67;5.68;;;8.80;99.90;;;;;;5038605;28;20121;-66
2022/11/24 09:54:27;;;;;;;15.35;4.63;;;9.00;99.90;;;;;;5038396;28;20135;-66
2022/11/24 09:56:58;;;;;;;17.05;4.28;;;9.00;99.90;;;;;;5055118;28;20582;-68
2022/11/24 09:59:26;;;;;;;17.35;4.85;;;9.10;99.90;;;;;;5037959;28;20470;-66
2022/11/24 10:01:53;;;;;;;18.95;4.80;;;9.60;99.90;;;;;;5026428;28;20109;-66
2022/11/24 10:04:27;;;;;;;16.10;4.70;;;9.70;99.90;;;;;;5034356;28;20194;-66
2022/11/24 10:07:04;;;;;;;18.80;5.55;;;9.30;99.90;;;;;;5055435;28;20056;-66
2022/11/24 10:09:38;;;;;;;19.73;4.90;;;9.40;99.90;;;;;;5055854;28;20059;-67
2022/11/24 10:12:07;;;;;;;17.77;4.38;;;9.70;99.90;;;;;;5035331;28;20233;-67
2022/11/24 10:14:45;;;;;;;14.57;3.97;;;10.30;99.90;;;;;;5036772;28;20441;-66
2022/11/24 10:17:49;;;;;;;12.77;3.40;;;10.80;99.90;;;;;;5055672;28;20148;-68
2022/11/24 10:20:21;;;;;;;11.63;3.13;;;11.20;99.90;;;;;;5002628;28;20448;-65
2022/11/24 10:22:47;;;;;;;9.38;2.30;;;11.70;99.90;;;;;;5037745;28;20618;-66
2022/11/24 10:25:27;;;;;;;13.73;2.90;;;11.80;99.90;;;;;;5054691;28;20553;-64
2022/11/24 10:28:01;;;;;;;10.80;2.88;;;12.30;99.90;;;;;;5020064;28;20454;-65
2022/11/24 10:30:27;;;;;;;13.52;2.40;;;12.40;99.90;;;;;;5037461;28;20040;-65
2022/11/24 10:33:11;;;;;;;12.55;2.83;;;12.50;99.90;;;;;;5037361;28;20634;-65
2022/11/24 10:35:49;;;;;;;12.23;2.70;;;12.70;99.90;;;;;;5033517;28;20605;-64
2022/11/24 10:38:21;;;;;;;12.07;2.25;;;12.90;99.90;;;;;;5057101;28;20904;-65
2022/11/24 10:40:56;;;;;;;12.50;2.55;;;13.10;99.90;;;;;;5037520;28;20048;-65
2022/11/24 10:43:21;;;;;;;10.40;2.78;;;13.30;99.90;;;;;;5035835;28;20044;-64
2022/11/24 10:45:47;;;;;;;7.65;1.63;;;13.30;99.90;;;;;;5037563;28;20048;-65
2022/11/24 10:48:24;;;;;;;8.60;1.50;;;13.10;99.90;;;;;;5052907;28;20738;-65
2022/11/24 10:50:53;;;;;;;9.95;1.65;;;13.10;99.90;;;;;;5050238;28;20040;-64
2022/11/24 10:53:27;;;;;;;8.10;1.48;;;13.20;99.90;;;;;;5021568;28;20045;-64
2022/11/24 10:55:53;;;;;;;7.05;1.40;;;12.90;99.90;;;;;;5054485;28;20491;-65
2022/11/24 10:58:23;;;;;;;8.18;1.65;;;13.00;99.90;;;;;;5053546;28;20052;-64
2022/11/24 11:00:49;;;;;;;8.05;1.25;;;13.20;99.90;;;;;;5035880;28;20051;-63
2022/11/24 11:03:19;;;;;;;7.60;1.10;;;13.00;99.90;;;;;;5037702;28;20645;-62
2022/11/24 11:06:13;;;;;;;7.97;1.50;;;13.00;99.90;;;;;;5015547;28;20053;-64
2022/11/24 11:08:39;;;;;;;;;;;13.10;99.90;;;;;;5055858;28;20056;-64
2022/11/24 11:11:21;;;;;;;9.88;1.33;;;13.00;99.90;;;;;;5036814;28;19920;-64
2022/11/24 11:13:55;;;;;;;5.25;0.90;;;13.10;99.90;;;;;;5035455;28;20111;-64
2022/11/24 11:16:35;;;;;;;6.80;0.93;;;13.30;99.90;;;;;;5015257;28;20050;-63
2022/11/24 11:19:25;;;;;;;9.52;1.30;;;13.20;99.90;;;;;;5037148;28;20400;-65
2022/11/24 11:22:20;;;;;;;7.28;1.38;;;13.40;99.90;;;;;;5050946;28;20302;-64
2022/11/24 11:24:59;;;;;;;9.73;1.40;;;13.40;99.90;;;;;;5054846;28;20353;-66
2022/11/24 11:27:26;;;;;;;9.40;1.35;;;13.60;99.90;;;;;;5036900;28;20045;-65
2022/11/24 11:29:52;;;;;;;8.85;1.25;;;13.90;99.90;;;;;;5053193;28;20059;-64
2022/11/24 11:32:21;;;;;;;8.25;1.40;;;13.90;99.90;;;;;;5035964;28;20040;-66
2022/11/24 11:34:48;;;;;;;5.90;0.80;;;13.70;99.90;;;;;;5054562;28;20569;-64
2022/11/24 11:37:15;;;;;;;9.73;0.73;;;13.80;99.90;;;;;;5052993;28;20041;-65
2022/11/24 11:39:45;;;;;;;7.50;0.88;;;13.90;99.90;;;;;;5037015;28;20409;-68
2022/11/24 11:42:21;;;;;;;6.22;0.73;;;14.20;99.90;;;;;;5043140;28;20036;-65
2022/11/24 11:44:56;;;;;;;6.10;0.77;;;14.20;99.90;;;;;;5058819;28;20067;-65
2022/11/24 11:47:25;;;;;;;6.78;1.20;;;14.50;99.90;;;;;;5060750;28;20043;-66
2022/11/24 11:49:51;;;;;;;7.68;0.90;;;14.50;99.90;;;;;;5042782;28;20032;-64
2022/11/24 11:52:40;;;;;;;5.88;1.25;;;14.60;99.90;;;;;;5039743;28;20043;-65
2022/11/24 11:55:42;;;;;;;6.30;0.98;;;14.40;99.90;;;;;;5038116;28;20665;-65
2022/11/24 11:58:26;;;;;;;7.30;1.10;;;14.30;99.90;;;;;;5040417;28;20048;-65
2022/11/24 12:01:04;;;;;;;6.63;0.93;;;14.60;99.90;;;;;;5039186;28;20435;-66
2022/11/24 12:03:54;;;;;;;7.80;1.00;;;15.00;99.90;;;;;;5059145;28;20139;-66
2022/11/24 12:06:47;;;;;;;5.03;0.82;;;15.40;99.90;;;;;;5038295;28;20708;-66
2022/11/24 12:09:42;;;;;;;6.00;0.98;;;15.20;99.90;;;;;;5017044;28;20068;-66
2022/11/24 12:12:46;;;;;;;6.45;0.50;;;15.20;99.90;;;;;;5038313;28;20465;-65
2022/11/24 12:15:34;;;;;;;4.23;0.67;;;15.50;99.90;;;;;;5035793;28;20041;-66
2022/11/24 12:18:18;;;;;;;7.22;0.80;;;15.20;99.90;;;;;;5037267;28;20069;-65
2022/11/24 12:20:58;;;;;;;7.15;0.90;;;15.50;99.90;;;;;;5035651;28;20053;-65
2022/11/24 12:23:42;;;;;;;6.72;0.80;;;15.50;99.90;;;;;;5035170;28;20048;-65
2022/11/24 12:26:26;;;;;;;4.93;0.80;;;15.60;99.90;;;;;;5035961;28;20045;-65
2022/11/24 12:29:14;;;;;;;6.07;0.80;;;15.70;99.90;;;;;;5035560;28;22085;-66
2022/11/24 12:32:02;;;;;;;6.88;0.93;;;15.90;99.90;;;;;;5036790;28;20592;-65
2022/11/24 12:34:39;;;;;;;7.75;0.98;;;15.60;99.90;;;;;;5023463;28;20048;-65
2022/11/24 12:37:28;;;;;;;6.55;1.00;;;15.10;99.90;;;;;;5038151;28;20127;-64
2022/11/24 12:39:54;;;;;;;3.22;0.77;;;14.70;99.90;;;;;;5032997;28;20045;-66
2022/11/24 12:42:25;;;;;;;7.40;0.90;;;14.40;99.90;;;;;;5035404;28;20099;-65
2022/11/24 12:44:56;;;;;;;8.55;1.38;;;14.10;99.90;;;;;;5038542;28;20033;-65
2022/11/24 12:47:34;;;;;;;7.30;1.27;;;14.00;99.90;;;;;;5034902;28;20041;-66
2022/11/24 12:50:08;;;;;;;9.55;1.27;;;14.00;99.90;;;;;;5037328;28;20059;-65
2022/11/24 12:52:45;;;;;;;7.22;1.17;;;14.30;99.90;;;;;;5036436;28;20044;-65
2022/11/24 12:55:18;;;;;;;8.70;1.20;;;14.70;99.90;;;;;;5035104;28;20040;-66
2022/11/24 12:58:05;;;;;;;9.82;1.33;;;14.80;99.90;;;;;;5034313;28;20395;-66
2022/11/24 13:00:49;;;;;;;6.03;0.77;;;14.90;99.90;;;;;;5021094;28;20049;-65